Map

Track Data

SID SEASON NUMBER BASIN SUBBASIN NAME ISO_TIME NATURE LAT LON WMO_WIND WMO_PRES WMO_AGENCY TRACK_TYPE DIST2LAND LANDFALL IFLAG USA_AGENCY USA_ATCF_ID USA_LAT USA_LON USA_RECORD USA_STATUS USA_WIND USA_PRES USA_SSHS USA_R34_NE USA_R34_SE USA_R34_SW USA_R34_NW USA_R50_NE USA_R50_SE USA_R50_SW USA_R50_NW USA_R64_NE USA_R64_SE USA_R64_SW USA_R64_NW USA_POCI USA_ROCI USA_RMW USA_EYE TOKYO_LAT TOKYO_LON TOKYO_GRADE TOKYO_WIND TOKYO_PRES TOKYO_R50_DIR TOKYO_R50_LONG TOKYO_R50_SHORT TOKYO_R30_DIR TOKYO_R30_LONG TOKYO_R30_SHORT TOKYO_LAND CMA_LAT CMA_LON CMA_CAT CMA_WIND CMA_PRES HKO_LAT HKO_LON HKO_CAT HKO_WIND HKO_PRES NEWDELHI_LAT NEWDELHI_LON NEWDELHI_GRADE NEWDELHI_WIND NEWDELHI_PRES NEWDELHI_CI NEWDELHI_DP NEWDELHI_POCI REUNION_LAT REUNION_LON REUNION_TYPE REUNION_WIND REUNION_PRES REUNION_TNUM REUNION_CI REUNION_RMW REUNION_R34_NE REUNION_R34_SE REUNION_R34_SW REUNION_R34_NW REUNION_R50_NE REUNION_R50_SE REUNION_R50_SW REUNION_R50_NW REUNION_R64_NE REUNION_R64_SE REUNION_R64_SW REUNION_R64_NW BOM_LAT BOM_LON BOM_TYPE BOM_WIND BOM_PRES BOM_TNUM BOM_CI BOM_RMW BOM_R34_NE BOM_R34_SE BOM_R34_SW BOM_R34_NW BOM_R50_NE BOM_R50_SE BOM_R50_SW BOM_R50_NW BOM_R64_NE BOM_R64_SE BOM_R64_SW BOM_R64_NW BOM_ROCI BOM_POCI BOM_EYE BOM_POS_METHOD BOM_PRES_METHOD NADI_LAT NADI_LON NADI_CAT NADI_WIND NADI_PRES WELLINGTON_LAT WELLINGTON_LON WELLINGTON_WIND WELLINGTON_PRES DS824_LAT DS824_LON DS824_STAGE DS824_WIND DS824_PRES TD9636_LAT TD9636_LON TD9636_STAGE TD9636_WIND TD9636_PRES TD9635_LAT TD9635_LON TD9635_WIND TD9635_PRES TD9635_ROCI NEUMANN_LAT NEUMANN_LON NEUMANN_CLASS NEUMANN_WIND NEUMANN_PRES MLC_LAT MLC_LON MLC_CLASS MLC_WIND MLC_PRES USA_GUST BOM_GUST BOM_GUST_PER REUNION_GUST REUNION_GUST_PER USA_SEAHGT USA_SEARAD_NE USA_SEARAD_SE USA_SEARAD_SW USA_SEARAD_NW STORM_SPEED STORM_DIR
1927323N21310 1927 69 NA NA NOT_NAMED 1927-11-19 00:00:00 TS 20.5000 -50.4000 30 hurdat_atl main 1577 1577 O_____________ hurdat_atl AL081927 20.5000 -50.4000 TD 30 -1 17 334
1927323N21310 1927 69 NA NA NOT_NAMED 1927-11-19 03:00:00 TS 21.2527 -50.7967 main 1580 1552 P_____________ AL081927 21.2527 -50.7967 TD 30 -1 17 334
1927323N21310 1927 69 NA NA NOT_NAMED 1927-11-19 06:00:00 TS 22.0000 -51.2000 30 hurdat_atl main 1554 1533 O_____________ hurdat_atl AL081927 22.0000 -51.2000 TD 30 -1 17 333
1927323N21310 1927 69 NA NA NOT_NAMED 1927-11-19 09:00:00 TS 22.7425 -51.6079 main 1533 1518 P_____________ AL081927 22.7425 -51.6079 TD 32 -1 17 334
1927323N21310 1927 69 NA NA NOT_NAMED 1927-11-19 12:00:00 TS 23.5000 -52.0000 35 hurdat_atl main 1521 1514 O_____________ hurdat_atl AL081927 23.5000 -52.0000 TS 35 0 17 336
1927323N21310 1927 69 NA NA NOT_NAMED 1927-11-19 15:00:00 TS 24.2849 -52.3581 main 1516 1516 P_____________ AL081927 24.2849 -52.3581 TS 37 0 17 338
1927323N21310 1927 69 NA NA NOT_NAMED 1927-11-19 18:00:00 TS 25.1000 -52.7000 40 hurdat_atl main 1526 1522 O_____________ hurdat_atl AL081927 25.1000 -52.7000 TS 40 0 18 339
1927323N21310 1927 69 NA NA NOT_NAMED 1927-11-19 21:00:00 TS 25.9500 -53.0577 main 1534 1534 P_____________ AL081927 25.9500 -53.0577 TS 42 0 18 340
1927323N21310 1927 69 NA NA NOT_NAMED 1927-11-20 00:00:00 TS 26.8000 -53.4000 45 hurdat_atl main 1563 1561 O_____________ hurdat_atl AL081927 26.8000 -53.4000 TS 45 0 18 340
1927323N21310 1927 69 NA NA NOT_NAMED 1927-11-20 03:00:00 TS 27.6074 -53.7155 main 1591 1590 P_____________ AL081927 27.6074 -53.7155 TS 47 0 17 342
1927323N21310 1927 69 NA NA NOT_NAMED 1927-11-20 06:00:00 TS 28.4000 -54.0000 50 hurdat_atl main 1625 1625 O_____________ hurdat_atl AL081927 28.4000 -54.0000 TS 50 0 17 343
1927323N21310 1927 69 NA NA NOT_NAMED 1927-11-20 09:00:00 TS 29.2075 -54.2727 main 1664 1664 P_____________ AL081927 29.2075 -54.2727 TS 50 0 17 345
1927323N21310 1927 69 NA NA NOT_NAMED 1927-11-20 12:00:00 TS 30.0000 -54.5000 50 hurdat_atl main 1714 1703 O_____________ hurdat_atl AL081927 30.0000 -54.5000 TS 50 0 16 347
1927323N21310 1927 69 NA NA NOT_NAMED 1927-11-20 15:00:00 TS 30.7724 -54.6729 main 1693 1619 P_____________ AL081927 30.7724 -54.6729 TS 50 0 15 350
1927323N21310 1927 69 NA NA NOT_NAMED 1927-11-20 18:00:00 TS 31.5000 -54.8000 50 hurdat_atl main 1619 1552 O_____________ hurdat_atl AL081927 31.5000 -54.8000 TS 50 0 14 352
1927323N21310 1927 69 NA NA NOT_NAMED 1927-11-20 21:00:00 TS 32.1800 -54.9152 main 1542 1475 P_____________ AL081927 32.1800 -54.9152 TS 50 0 13 353
1927323N21310 1927 69 NA NA NOT_NAMED 1927-11-21 00:00:00 TS 32.8000 -55.0000 50 hurdat_atl main 1475 1420 O_____________ hurdat_atl AL081927 32.8000 -55.0000 TS 50 0 12 354
1927323N21310 1927 69 NA NA NOT_NAMED 1927-11-21 03:00:00 TS 33.3650 -55.0725 main 1409 1357 P_____________ AL081927 33.3650 -55.0725 TS 47 0 11 356
1927323N21310 1927 69 NA NA NOT_NAMED 1927-11-21 06:00:00 TS 33.9000 -55.1000 45 hurdat_atl main 1357 1305 O_____________ hurdat_atl AL081927 33.9000 -55.1000 TS 45 0 11 0
1927323N21310 1927 69 NA NA NOT_NAMED 1927-11-21 09:00:00 TS 34.4575 -55.0800 main 1294 1246 P_____________ AL081927 34.4575 -55.0800 TS 42 0 11 4
1927323N21310 1927 69 NA NA NOT_NAMED 1927-11-21 12:00:00 ET 35.0000 -55.0000 40 hurdat_atl main 1246 1198 O_____________ hurdat_atl AL081927 35.0000 -55.0000 EX 40 -4 11 10
1927323N21310 1927 69 NA NA NOT_NAMED 1927-11-21 15:00:00 ET 35.5101 -54.8654 main 1198 1155 P_____________ AL081927 35.5101 -54.8654 EX 37 -4 10 14
1927323N21310 1927 69 NA NA NOT_NAMED 1927-11-21 18:00:00 ET 36.0000 -54.7000 35 hurdat_atl main 1155 O_____________ hurdat_atl AL081927 36.0000 -54.7000 EX 35 -4 10 15

About IBTrACS Database

This database is a web-friendly format of International Best Track Archive for Climate Stewardship (IBTrACS), a global best track data archive curated by NOAA dating back to 1842.

Updated: 2021-10-08